Langdale, Alabama
Current Conditions -  °F | °C
As of 4:55 AM on Sunday 23 Nov 2014 (Local Time) from KLGC Reporting Station
Moderate Rain Moderate Rain  
Wind Chill: 58°   Ceiling: 600
Heat Index: 58°   Visibility: 7mi
Dew Point: 57°   Wind: 5mph
Humidity: 97%   Direction: 110°ESE
Pressure: 29.98"   Gusts: NA
Location:  32.7858°N, 85.1946°W
Report Text: KLGC 231055Z AUTO 11004KT 7SM RA OVC006 14/14 A2998 RMK AO2 T01420138
Loading
Personal Weather Stations






























Interactive Weather Map New forecast layout! Learn more

10-Day Weather Forecast

Advertisements
Track Severe Weather on mobile